sensor_id;sensor_type;location;lat;lon;timestamp;pressure;altitude;pressure_sealevel;temperature;humidity
41254;BME280;26987;59.928;30.306;2023-04-15T00:01:04;102776.53;;;0.80;39.31
41254;BME280;26987;59.928;30.306;2023-04-15T00:03:32;102769.63;;;0.77;38.90
41254;BME280;26987;59.928;30.306;2023-04-15T00:06:00;102769.78;;;0.74;39.17
41254;BME280;26987;59.928;30.306;2023-04-15T00:08:29;102771.69;;;0.72;38.91
41254;BME280;26987;59.928;30.306;2023-04-15T00:10:57;102773.56;;;0.70;38.88
41254;BME280;26987;59.928;30.306;2023-04-15T00:13:29;102758.25;;;0.60;38.69
41254;BME280;26987;59.928;30.306;2023-04-15T00:15:57;102771.88;;;0.69;38.96
41254;BME280;26987;59.928;30.306;2023-04-15T00:18:25;102770.56;;;0.61;39.46
41254;BME280;26987;59.928;30.306;2023-04-15T00:20:54;102772.41;;;0.59;39.36
41254;BME280;26987;59.928;30.306;2023-04-15T00:23:22;102774.28;;;0.57;39.65
41254;BME280;26987;59.928;30.306;2023-04-15T00:25:50;102782.41;;;0.54;39.55
41254;BME280;26987;59.928;30.306;2023-04-15T00:28:18;102772.69;;;0.55;39.47
41254;BME280;26987;59.928;30.306;2023-04-15T00:30:48;102778.06;;;0.53;39.51
41254;BME280;26987;59.928;30.306;2023-04-15T00:33:16;102783.25;;;0.55;39.54
41254;BME280;26987;59.928;30.306;2023-04-15T00:35:44;102782.41;;;0.54;39.27
41254;BME280;26987;59.928;30.306;2023-04-15T00:38:12;102780.69;;;0.53;39.49
41254;BME280;26987;59.928;30.306;2023-04-15T00:40:41;102782.50;;;0.53;39.13
41254;BME280;26987;59.928;30.306;2023-04-15T00:43:10;102778.22;;;0.50;39.62
41254;BME280;26987;59.928;30.306;2023-04-15T00:45:37;102790.13;;;0.57;39.35
41254;BME280;26987;59.928;30.306;2023-04-15T00:48:07;102792.03;;;0.55;39.29
41254;BME280;26987;59.928;30.306;2023-04-15T00:50:35;102802.59;;;0.55;39.28
41254;BME280;26987;59.928;30.306;2023-04-15T00:53:03;102783.50;;;0.50;39.23
41254;BME280;26987;59.928;30.306;2023-04-15T00:55:31;102790.34;;;0.54;39.18
41254;BME280;26987;59.928;30.306;2023-04-15T00:57:59;102789.38;;;0.55;39.43
41254;BME280;26987;59.928;30.306;2023-04-15T01:00:27;102800.03;;;0.54;39.51
41254;BME280;26987;59.928;30.306;2023-04-15T01:02:55;102794.75;;;0.54;39.70
41254;BME280;26987;59.928;30.306;2023-04-15T01:05:25;102788.44;;;0.56;39.78
41254;BME280;26987;59.928;30.306;2023-04-15T01:07:54;102792.38;;;0.49;39.41
41254;BME280;26987;59.928;30.306;2023-04-15T01:10:22;102794.06;;;0.50;39.43
41254;BME280;26987;59.928;30.306;2023-04-15T01:12:50;102790.69;;;0.48;39.64
41254;BME280;26987;59.928;30.306;2023-04-15T01:15:19;102793.41;;;0.46;39.71
41254;BME280;26987;59.928;30.306;2023-04-15T01:17:47;102788.50;;;0.40;39.65
41254;BME280;26987;59.928;30.306;2023-04-15T01:20:15;102796.22;;;0.43;39.84
41254;BME280;26987;59.928;30.306;2023-04-15T01:22:45;102780.47;;;0.42;39.85
41254;BME280;26987;59.928;30.306;2023-04-15T01:25:17;102796.97;;;0.45;39.73
41254;BME280;26987;59.928;30.306;2023-04-15T01:27:46;102788.31;;;0.43;40.01
41254;BME280;26987;59.928;30.306;2023-04-15T01:30:15;102793.94;;;0.37;40.26
41254;BME280;26987;59.928;30.306;2023-04-15T01:32:43;102791.22;;;0.39;39.89
41254;BME280;26987;59.928;30.306;2023-04-15T01:35:30;102798.38;;;0.36;40.17
41254;BME280;26987;59.928;30.306;2023-04-15T01:38:02;102785.50;;;0.30;40.47
41254;BME280;26987;59.928;30.306;2023-04-15T01:40:31;102798.53;;;0.33;40.30
41254;BME280;26987;59.928;30.306;2023-04-15T01:43:02;102795.72;;;0.36;40.54
41254;BME280;26987;59.928;30.306;2023-04-15T01:45:31;102794.88;;;0.36;40.57
41254;BME280;26987;59.928;30.306;2023-04-15T01:48:00;102794.97;;;0.34;40.62
41254;BME280;26987;59.928;30.306;2023-04-15T01:50:29;102790.63;;;0.33;40.81
41254;BME280;26987;59.928;30.306;2023-04-15T01:52:58;102790.44;;;0.36;40.51
41254;BME280;26987;59.928;30.306;2023-04-15T01:55:28;102781.00;;;0.32;40.68
41254;BME280;26987;59.928;30.306;2023-04-15T01:57:57;102774.38;;;0.25;40.60
41254;BME280;26987;59.928;30.306;2023-04-15T02:00:28;102794.88;;;0.36;40.61
41254;BME280;26987;59.928;30.306;2023-04-15T02:02:57;102796.59;;;0.37;40.33
41254;BME280;26987;59.928;30.306;2023-04-15T02:05:27;102794.03;;;0.35;40.44
41254;BME280;26987;59.928;30.306;2023-04-15T02:07:56;102790.06;;;0.28;40.72
41254;BME280;26987;59.928;30.306;2023-04-15T02:10:26;102801.88;;;0.37;40.74
41254;BME280;26987;59.928;30.306;2023-04-15T02:12:55;102754.84;;;0.13;39.95
41254;BME280;26987;59.928;30.306;2023-04-15T02:15:29;102779.06;;;0.20;39.97
41254;BME280;26987;59.928;30.306;2023-04-15T02:18:00;102791.00;;;0.27;40.15
41254;BME280;26987;59.928;30.306;2023-04-15T02:20:29;102799.56;;;0.31;40.27
41254;BME280;26987;59.928;30.306;2023-04-15T02:22:59;102807.41;;;0.32;40.43
41254;BME280;26987;59.928;30.306;2023-04-15T02:25:28;102805.72;;;0.31;40.27
41254;BME280;26987;59.928;30.306;2023-04-15T02:27:57;102805.72;;;0.31;40.18
41254;BME280;26987;59.928;30.306;2023-04-15T02:30:26;102807.31;;;0.34;40.71
41254;BME280;26987;59.928;30.306;2023-04-15T02:32:57;102815.91;;;0.37;40.29
41254;BME280;26987;59.928;30.306;2023-04-15T02:35:26;102774.56;;;0.22;40.47
41254;BME280;26987;59.928;30.306;2023-04-15T02:37:56;102811.38;;;0.40;40.64
41254;BME280;26987;59.928;30.306;2023-04-15T02:40:25;102807.81;;;0.41;39.96
41254;BME280;26987;59.928;30.306;2023-04-15T02:42:55;102819.03;;;0.44;39.82
41254;BME280;26987;59.928;30.306;2023-04-15T02:45:24;102804.91;;;0.45;40.20
41254;BME280;26987;59.928;30.306;2023-04-15T02:47:54;102811.72;;;0.49;40.31
41254;BME280;26987;59.928;30.306;2023-04-15T02:50:25;102808.81;;;0.54;40.23
41254;BME280;26987;59.928;30.306;2023-04-15T02:52:54;102813.50;;;0.49;39.81
41254;BME280;26987;59.928;30.306;2023-04-15T02:55:23;102807.09;;;0.53;39.81
41254;BME280;26987;59.928;30.306;2023-04-15T02:57:52;102822.94;;;0.53;39.88
41254;BME280;26987;59.928;30.306;2023-04-15T03:00:22;102816.75;;;0.54;39.60
41254;BME280;26987;59.928;30.306;2023-04-15T03:02:57;102811.25;;;0.57;39.82
41254;BME280;26987;59.928;30.306;2023-04-15T03:05:28;102808.44;;;0.60;39.88
41254;BME280;26987;59.928;30.306;2023-04-15T03:07:57;102818.25;;;0.58;39.93
41254;BME280;26987;59.928;30.306;2023-04-15T03:10:27;102815.34;;;0.63;39.49
41254;BME280;26987;59.928;30.306;2023-04-15T03:12:57;102815.53;;;0.60;39.52
41254;BME280;26987;59.928;30.306;2023-04-15T03:15:26;102824.28;;;0.60;39.72
41254;BME280;26987;59.928;30.306;2023-04-15T03:17:56;102818.00;;;0.63;39.63
41254;BME280;26987;59.928;30.306;2023-04-15T03:20:25;102802.59;;;0.55;39.23
41254;BME280;26987;59.928;30.306;2023-04-15T03:22:55;102808.59;;;0.57;39.04
41254;BME280;26987;59.928;30.306;2023-04-15T03:25:26;102820.16;;;0.71;39.39
41254;BME280;26987;59.928;30.306;2023-04-15T03:27:55;102815.81;;;0.70;39.67
41254;BME280;26987;59.928;30.306;2023-04-15T03:30:24;102815.28;;;0.79;39.41
41254;BME280;26987;59.928;30.306;2023-04-15T03:32:54;102815.75;;;0.86;39.07
41254;BME280;26987;59.928;30.306;2023-04-15T03:35:23;102804.19;;;0.88;39.00
41254;BME280;26987;59.928;30.306;2023-04-15T03:37:52;102813.03;;;0.87;39.07
41254;BME280;26987;59.928;30.306;2023-04-15T03:40:23;102810.47;;;0.86;38.65
41254;BME280;26987;59.928;30.306;2023-04-15T03:42:52;102792.47;;;0.78;38.84
41254;BME280;26987;59.928;30.306;2023-04-15T03:45:21;102823.06;;;0.97;38.64
41254;BME280;26987;59.928;30.306;2023-04-15T03:47:50;102827.03;;;1.04;38.78
41254;BME280;26987;59.928;30.306;2023-04-15T03:50:19;102834.75;;;1.07;38.64
41254;BME280;26987;59.928;30.306;2023-04-15T03:52:48;102814.47;;;0.93;38.86
41254;BME280;26987;59.928;30.306;2023-04-15T03:55:17;102823.81;;;0.99;38.91
41254;BME280;26987;59.928;30.306;2023-04-15T03:57:48;102827.97;;;1.03;38.64
41254;BME280;26987;59.928;30.306;2023-04-15T04:00:18;102831.38;;;1.05;38.96
41254;BME280;26987;59.928;30.306;2023-04-15T04:02:47;102829.13;;;1.13;38.84
41254;BME280;26987;59.928;30.306;2023-04-15T04:05:16;102832.34;;;1.19;38.32
41254;BME280;26987;59.928;30.306;2023-04-15T04:07:45;102840.09;;;1.22;38.37
41254;BME280;26987;59.928;30.306;2023-04-15T04:10:15;102837.91;;;1.29;38.22
41254;BME280;26987;59.928;30.306;2023-04-15T04:12:44;102836.69;;;1.34;38.35
41254;BME280;26987;59.928;30.306;2023-04-15T04:15:16;102820.81;;;1.34;38.01
41254;BME280;26987;59.928;30.306;2023-04-15T04:17:46;102831.50;;;1.47;38.15
41254;BME280;26987;59.928;30.306;2023-04-15T04:20:16;102803.25;;;1.33;37.68
41254;BME280;26987;59.928;30.306;2023-04-15T04:22:45;102832.91;;;1.53;37.78
41254;BME280;26987;59.928;30.306;2023-04-15T04:25:14;102842.25;;;1.59;37.92
41254;BME280;26987;59.928;30.306;2023-04-15T04:27:44;102837.25;;;1.54;37.24
41254;BME280;26987;59.928;30.306;2023-04-15T04:30:14;102844.72;;;1.62;37.72
41254;BME280;26987;59.928;30.306;2023-04-15T04:32:44;102839.13;;;1.67;37.58
41254;BME280;26987;59.928;30.306;2023-04-15T04:35:13;102842.53;;;1.69;36.99
41254;BME280;26987;59.928;30.306;2023-04-15T04:37:42;102821.28;;;1.56;37.48
41254;BME280;26987;59.928;30.306;2023-04-15T04:40:12;102834.28;;;1.73;37.30
41254;BME280;26987;59.928;30.306;2023-04-15T04:42:41;102820.72;;;1.65;37.13
41254;BME280;26987;59.928;30.306;2023-04-15T04:45:10;102839.13;;;1.81;36.97
41254;BME280;26987;59.928;30.306;2023-04-15T04:47:41;102835.03;;;1.90;36.40
41254;BME280;26987;59.928;30.306;2023-04-15T04:50:10;102843.44;;;1.97;36.67
41254;BME280;26987;59.928;30.306;2023-04-15T04:52:39;102848.25;;;2.05;36.71
41254;BME280;26987;59.928;30.306;2023-04-15T04:55:08;102842.25;;;2.16;36.26
41254;BME280;26987;59.928;30.306;2023-04-15T04:57:38;102846.66;;;2.30;36.36
41254;BME280;26987;59.928;30.306;2023-04-15T05:00:08;102856.56;;;2.41;35.94
41254;BME280;26987;59.928;30.306;2023-04-15T05:02:37;102851.59;;;2.49;35.75
41254;BME280;26987;59.928;30.306;2023-04-15T05:05:10;102865.81;;;2.61;35.66
41254;BME280;26987;59.928;30.306;2023-04-15T05:07:39;102845.47;;;2.48;35.14
41254;BME280;26987;59.928;30.306;2023-04-15T05:10:09;102854.50;;;2.72;35.42
41254;BME280;26987;59.928;30.306;2023-04-15T05:12:38;102847.66;;;2.82;35.09
41254;BME280;26987;59.928;30.306;2023-04-15T05:15:08;102848.31;;;2.99;35.42
41254;BME280;26987;59.928;30.306;2023-04-15T05:17:37;102854.06;;;3.19;34.78
41254;BME280;26987;59.928;30.306;2023-04-15T05:20:09;102855.88;;;3.31;33.99
41254;BME280;26987;59.928;30.306;2023-04-15T05:22:38;102856.19;;;3.26;34.45
41254;BME280;26987;59.928;30.306;2023-04-15T05:25:08;102860.00;;;3.35;34.06
41254;BME280;26987;59.928;30.306;2023-04-15T05:27:37;102855.75;;;3.46;33.86
41254;BME280;26987;59.928;30.306;2023-04-15T05:30:07;102859.75;;;3.51;33.65
41254;BME280;26987;59.928;30.306;2023-04-15T05:32:36;102853.06;;;3.59;34.01
41254;BME280;26987;59.928;30.306;2023-04-15T05:35:06;102857.19;;;3.76;33.85
41254;BME280;26987;59.928;30.306;2023-04-15T05:37:36;102859.47;;;3.94;33.47
41254;BME280;26987;59.928;30.306;2023-04-15T05:40:07;102815.31;;;3.55;33.93
41254;BME280;26987;59.928;30.306;2023-04-15T05:42:37;102853.88;;;3.85;33.21
41254;BME280;26987;59.928;30.306;2023-04-15T05:45:06;102866.78;;;4.03;33.06
41254;BME280;26987;59.928;30.306;2023-04-15T05:47:36;102861.09;;;4.21;32.40
41254;BME280;26987;59.928;30.306;2023-04-15T05:50:06;102862.41;;;4.39;32.27
41254;BME280;26987;59.928;30.306;2023-04-15T05:52:36;102858.09;;;4.50;32.55
41254;BME280;26987;59.928;30.306;2023-04-15T05:55:06;102865.09;;;4.51;31.53
41254;BME280;26987;59.928;30.306;2023-04-15T05:57:35;102857.31;;;4.36;32.38
41254;BME280;26987;59.928;30.306;2023-04-15T06:00:05;102860.75;;;4.25;32.66
41254;BME280;26987;59.928;30.306;2023-04-15T06:02:37;102868.44;;;4.17;31.59
41254;BME280;26987;59.928;30.306;2023-04-15T06:05:07;102862.81;;;4.09;32.16
41254;BME280;26987;59.928;30.306;2023-04-15T06:07:39;102864.88;;;4.05;32.21
41254;BME280;26987;59.928;30.306;2023-04-15T06:10:10;102862.34;;;4.03;31.98
41254;BME280;26987;59.928;30.306;2023-04-15T06:12:39;102865.03;;;4.15;32.05
41254;BME280;26987;59.928;30.306;2023-04-15T06:15:09;102880.38;;;4.36;31.26
41254;BME280;26987;59.928;30.306;2023-04-15T06:17:38;102870.53;;;4.49;31.29
41254;BME280;26987;59.928;30.306;2023-04-15T06:20:08;102873.28;;;4.72;30.87
41254;BME280;26987;59.928;30.306;2023-04-15T06:22:39;102875.84;;;4.85;31.25
41254;BME280;26987;59.928;30.306;2023-04-15T06:25:08;102874.69;;;4.89;30.46
41254;BME280;26987;59.928;30.306;2023-04-15T06:27:38;102871.81;;;5.04;30.84
41254;BME280;26987;59.928;30.306;2023-04-15T06:30:08;102871.97;;;5.25;30.75
41254;BME280;26987;59.928;30.306;2023-04-15T06:32:38;102863.84;;;5.15;30.63
41254;BME280;26987;59.928;30.306;2023-04-15T06:35:07;102873.41;;;5.29;31.20
41254;BME280;26987;59.928;30.306;2023-04-15T06:37:37;102877.44;;;5.47;30.19
41254;BME280;26987;59.928;30.306;2023-04-15T06:40:09;102873.06;;;5.68;29.54
41254;BME280;26987;59.928;30.306;2023-04-15T06:42:38;102861.47;;;5.47;29.99
41254;BME280;26987;59.928;30.306;2023-04-15T06:45:08;102867.03;;;5.43;30.54
41254;BME280;26987;59.928;30.306;2023-04-15T06:47:37;102872.97;;;5.59;30.48
41254;BME280;26987;59.928;30.306;2023-04-15T06:50:08;102869.22;;;5.61;30.22
41254;BME280;26987;59.928;30.306;2023-04-15T06:52:38;102868.59;;;5.69;29.68
41254;BME280;26987;59.928;30.306;2023-04-15T06:55:09;102868.97;;;5.64;29.79
41254;BME280;26987;59.928;30.306;2023-04-15T06:57:38;102865.06;;;5.23;29.74
41254;BME280;26987;59.928;30.306;2023-04-15T07:00:08;102869.38;;;5.12;29.52
41254;BME280;26987;59.928;30.306;2023-04-15T07:02:38;102875.31;;;5.04;30.21
41254;BME280;26987;59.928;30.306;2023-04-15T07:05:08;102871.34;;;5.10;30.41
41254;BME280;26987;59.928;30.306;2023-04-15T07:07:37;102868.69;;;5.22;29.94
41254;BME280;26987;59.928;30.306;2023-04-15T07:10:09;102871.22;;;5.35;29.63
41254;BME280;26987;59.928;30.306;2023-04-15T07:12:38;102881.53;;;5.51;29.69
41254;BME280;26987;59.928;30.306;2023-04-15T07:15:08;102882.75;;;5.47;29.74
41254;BME280;26987;59.928;30.306;2023-04-15T07:17:38;102882.13;;;5.43;30.59
41254;BME280;26987;59.928;30.306;2023-04-15T07:20:07;102883.34;;;5.39;30.06
41254;BME280;26987;59.928;30.306;2023-04-15T07:22:37;102877.13;;;5.15;29.70
41254;BME280;26987;59.928;30.306;2023-04-15T07:25:09;102884.13;;;5.05;29.83
41254;BME280;26987;59.928;30.306;2023-04-15T07:27:38;102869.84;;;4.95;30.72
41254;BME280;26987;59.928;30.306;2023-04-15T07:30:08;102870.34;;;5.00;30.15
41254;BME280;26987;59.928;30.306;2023-04-15T07:32:38;102878.56;;;5.08;30.36
41254;BME280;26987;59.928;30.306;2023-04-15T07:35:07;102877.25;;;5.14;30.04
41254;BME280;26987;59.928;30.306;2023-04-15T07:37:38;102872.31;;;5.21;29.93
41254;BME280;26987;59.928;30.306;2023-04-15T07:40:10;102885.28;;;5.37;30.46
41254;BME280;26987;59.928;30.306;2023-04-15T07:42:41;102887.34;;;5.45;29.99
41254;BME280;26987;59.928;30.306;2023-04-15T07:45:10;102881.03;;;5.46;30.50
41254;BME280;26987;59.928;30.306;2023-04-15T07:47:41;102882.63;;;5.37;30.58
41254;BME280;26987;59.928;30.306;2023-04-15T07:50:11;102889.66;;;5.49;29.81
41254;BME280;26987;59.928;30.306;2023-04-15T07:52:40;102889.19;;;5.55;29.76
41254;BME280;26987;59.928;30.306;2023-04-15T07:55:11;102882.00;;;5.56;29.84
41254;BME280;26987;59.928;30.306;2023-04-15T07:57:40;102888.78;;;5.49;30.13
41254;BME280;26987;59.928;30.306;2023-04-15T08:00:10;102890.50;;;5.61;29.66
41254;BME280;26987;59.928;30.306;2023-04-15T08:02:42;102882.63;;;5.83;29.54
41254;BME280;26987;59.928;30.306;2023-04-15T08:05:13;102880.06;;;5.92;30.06
41254;BME280;26987;59.928;30.306;2023-04-15T08:07:42;102888.44;;;5.76;30.34
41254;BME280;26987;59.928;30.306;2023-04-15T08:10:13;102897.75;;;5.82;30.36
41254;BME280;26987;59.928;30.306;2023-04-15T08:12:42;102885.53;;;5.79;30.00
41254;BME280;26987;59.928;30.306;2023-04-15T08:15:15;102889.53;;;5.62;29.86
41254;BME280;26987;59.928;30.306;2023-04-15T08:17:45;102882.75;;;5.47;30.09
41254;BME280;26987;59.928;30.306;2023-04-15T08:20:14;102879.13;;;5.48;30.69
41254;BME280;26987;59.928;30.306;2023-04-15T08:22:43;102878.88;;;5.51;30.37
41254;BME280;26987;59.928;30.306;2023-04-15T08:25:15;102879.84;;;5.50;30.37
41254;BME280;26987;59.928;30.306;2023-04-15T08:27:45;102889.75;;;5.59;30.74
41254;BME280;26987;59.928;30.306;2023-04-15T08:30:14;102876.34;;;5.49;30.22
41254;BME280;26987;59.928;30.306;2023-04-15T08:32:44;102886.13;;;5.49;30.29
41254;BME280;26987;59.928;30.306;2023-04-15T08:35:14;102877.16;;;5.50;30.35
41254;BME280;26987;59.928;30.306;2023-04-15T08:37:43;102872.34;;;5.43;30.10
41254;BME280;26987;59.928;30.306;2023-04-15T08:40:12;102877.91;;;5.63;29.89
41254;BME280;26987;59.928;30.306;2023-04-15T08:42:48;102871.63;;;5.87;29.94
41254;BME280;26987;59.928;30.306;2023-04-15T08:45:20;102871.75;;;5.86;29.86
41254;BME280;26987;59.928;30.306;2023-04-15T08:47:53;102835.44;;;5.62;29.77
41254;BME280;26987;59.928;30.306;2023-04-15T08:50:24;102867.00;;;5.89;29.73
41254;BME280;26987;59.928;30.306;2023-04-15T08:52:54;102861.91;;;5.86;30.19
41254;BME280;26987;59.928;30.306;2023-04-15T08:55:27;102869.06;;;5.97;29.91
41254;BME280;26987;59.928;30.306;2023-04-15T08:58:00;102874.50;;;6.07;28.94
41254;BME280;26987;59.928;30.306;2023-04-15T09:00:30;102866.25;;;5.99;28.90
41254;BME280;26987;59.928;30.306;2023-04-15T09:02:59;102861.66;;;6.01;29.15
41254;BME280;26987;59.928;30.306;2023-04-15T09:05:31;102862.59;;;6.23;28.86
41254;BME280;26987;59.928;30.306;2023-04-15T09:08:00;102858.88;;;6.47;28.90
41254;BME280;26987;59.928;30.306;2023-04-15T09:10:29;102848.38;;;6.66;28.50
41254;BME280;26987;59.928;30.306;2023-04-15T09:13:00;102868.94;;;6.76;28.85
41254;BME280;26987;59.928;30.306;2023-04-15T09:15:31;102848.31;;;6.56;28.66
41254;BME280;26987;59.928;30.306;2023-04-15T09:18:01;102857.63;;;6.62;28.45
41254;BME280;26987;59.928;30.306;2023-04-15T09:20:38;102864.38;;;6.66;28.61
41254;BME280;26987;59.928;30.306;2023-04-15T09:23:11;102857.88;;;6.59;27.75
41254;BME280;26987;59.928;30.306;2023-04-15T09:25:41;102853.50;;;6.37;28.03
41254;BME280;26987;59.928;30.306;2023-04-15T09:28:11;102856.59;;;6.42;28.16
41254;BME280;26987;59.928;30.306;2023-04-15T09:30:42;102860.66;;;6.58;28.06
41254;BME280;26987;59.928;30.306;2023-04-15T09:33:13;102861.91;;;6.75;27.67
41254;BME280;26987;59.928;30.306;2023-04-15T09:35:55;102853.38;;;6.81;27.70
41254;BME280;26987;59.928;30.306;2023-04-15T09:38:25;102843.78;;;6.68;27.60
41254;BME280;26987;59.928;30.306;2023-04-15T09:40:55;102842.31;;;6.64;27.69
41254;BME280;26987;59.928;30.306;2023-04-15T09:43:38;102847.22;;;6.59;27.50
41254;BME280;26987;59.928;30.306;2023-04-15T09:46:07;102840.03;;;6.38;28.26
41254;BME280;26987;59.928;30.306;2023-04-15T09:48:37;102849.50;;;6.31;27.94
41254;BME280;26987;59.928;30.306;2023-04-15T09:51:06;102839.56;;;6.33;28.11
41254;BME280;26987;59.928;30.306;2023-04-15T09:53:35;102834.47;;;6.30;28.25
41254;BME280;26987;59.928;30.306;2023-04-15T09:56:06;102850.56;;;6.61;27.64
41254;BME280;26987;59.928;30.306;2023-04-15T09:58:38;102846.88;;;6.74;27.69
41254;BME280;26987;59.928;30.306;2023-04-15T10:01:09;102862.25;;;6.81;27.46
41254;BME280;26987;59.928;30.306;2023-04-15T10:03:40;102854.13;;;6.83;27.79
41254;BME280;26987;59.928;30.306;2023-04-15T10:06:10;102848.84;;;6.72;27.62
41254;BME280;26987;59.928;30.306;2023-04-15T10:08:40;102861.38;;;6.81;27.25
41254;BME280;26987;59.928;30.306;2023-04-15T10:11:11;102837.47;;;6.69;26.43
41254;BME280;26987;59.928;30.306;2023-04-15T10:13:42;102827.13;;;6.76;26.69
41254;BME280;26987;59.928;30.306;2023-04-15T10:16:13;102850.59;;;7.04;26.53
41254;BME280;26987;59.928;30.306;2023-04-15T10:18:44;102822.44;;;6.90;26.63
41254;BME280;26987;59.928;30.306;2023-04-15T10:21:13;102849.75;;;7.03;26.36
41254;BME280;26987;59.928;30.306;2023-04-15T10:23:45;102847.19;;;7.02;26.63
41254;BME280;26987;59.928;30.306;2023-04-15T10:26:15;102804.44;;;6.82;27.07
41254;BME280;26987;59.928;30.306;2023-04-15T10:28:45;102829.63;;;7.21;26.25
41254;BME280;26987;59.928;30.306;2023-04-15T10:31:15;102804.00;;;7.08;25.97
41254;BME280;26987;59.928;30.306;2023-04-15T10:33:46;102844.59;;;7.12;26.38
41254;BME280;26987;59.928;30.306;2023-04-15T10:36:17;102833.16;;;7.00;26.53
41254;BME280;26987;59.928;30.306;2023-04-15T10:38:47;102846.44;;;6.90;27.36
41254;BME280;26987;59.928;30.306;2023-04-15T10:41:18;102829.38;;;6.81;27.23
41254;BME280;26987;59.928;30.306;2023-04-15T10:43:51;102795.72;;;6.80;27.33
41254;BME280;26987;59.928;30.306;2023-04-15T10:46:21;102835.75;;;7.11;27.08
41254;BME280;26987;59.928;30.306;2023-04-15T10:48:52;102830.41;;;7.11;26.74
41254;BME280;26987;59.928;30.306;2023-04-15T10:51:29;102805.97;;;7.06;27.11
41254;BME280;26987;59.928;30.306;2023-04-15T10:53:59;102774.06;;;6.73;26.59
41254;BME280;26987;59.928;30.306;2023-04-15T10:56:28;102844.41;;;7.03;26.65
41254;BME280;26987;59.928;30.306;2023-04-15T10:59:00;102842.69;;;6.92;26.72
41254;BME280;26987;59.928;30.306;2023-04-15T11:01:52;102829.25;;;7.04;27.23
41254;BME280;26987;59.928;30.306;2023-04-15T11:04:52;102824.03;;;7.24;27.13
41254;BME280;26987;59.928;30.306;2023-04-15T11:07:38;102825.16;;;7.21;26.69
41254;BME280;26987;59.928;30.306;2023-04-15T11:13:27;102828.41;;;7.03;27.15
41254;BME280;26987;59.928;30.306;2023-04-15T11:16:00;102831.16;;;6.92;26.23
41254;BME280;26987;59.928;30.306;2023-04-15T11:18:31;102819.09;;;6.98;26.56
41254;BME280;26987;59.928;30.306;2023-04-15T11:21:02;102824.78;;;7.04;26.67
41254;BME280;26987;59.928;30.306;2023-04-15T11:23:35;102822.75;;;6.97;27.21
41254;BME280;26987;59.928;30.306;2023-04-15T11:26:08;102800.41;;;6.88;26.73
41254;BME280;26987;59.928;30.306;2023-04-15T11:28:39;102822.00;;;7.16;26.80
41254;BME280;26987;59.928;30.306;2023-04-15T11:31:11;102802.06;;;7.10;26.97
41254;BME280;26987;59.928;30.306;2023-04-15T11:33:54;102811.47;;;7.14;27.01
41254;BME280;26987;59.928;30.306;2023-04-15T11:36:25;102807.13;;;7.13;27.29
41254;BME280;26987;59.928;30.306;2023-04-15T11:38:56;102815.00;;;7.15;27.67
41254;BME280;26987;59.928;30.306;2023-04-15T11:41:25;102788.75;;;6.89;27.37
41254;BME280;26987;59.928;30.306;2023-04-15T11:43:55;102811.31;;;6.85;27.30
41254;BME280;26987;59.928;30.306;2023-04-15T11:46:29;102810.28;;;6.76;27.99
41254;BME280;26987;59.928;30.306;2023-04-15T11:48:59;102812.75;;;6.67;27.78
41254;BME280;26987;59.928;30.306;2023-04-15T11:51:31;102783.50;;;6.56;28.21
41254;BME280;26987;59.928;30.306;2023-04-15T11:54:00;102796.63;;;6.90;28.30
41254;BME280;26987;59.928;30.306;2023-04-15T11:56:28;102791.38;;;6.79;28.39
41254;BME280;26987;59.928;30.306;2023-04-15T11:58:58;102804.75;;;6.67;28.51
41254;BME280;26987;59.928;30.306;2023-04-15T12:01:33;102799.09;;;6.61;28.17
41254;BME280;26987;59.928;30.306;2023-04-15T12:04:01;102791.03;;;6.51;28.65
41254;BME280;26987;59.928;30.306;2023-04-15T12:06:37;102792.72;;;6.52;28.46
41254;BME280;26987;59.928;30.306;2023-04-15T12:09:09;102793.91;;;6.59;28.45
41254;BME280;26987;59.928;30.306;2023-04-15T12:11:39;102786.81;;;6.69;28.47
41254;BME280;26987;59.928;30.306;2023-04-15T12:14:09;102785.38;;;6.87;28.08
41254;BME280;26987;59.928;30.306;2023-04-15T12:16:41;102768.91;;;6.81;28.39
41254;BME280;26987;59.928;30.306;2023-04-15T12:19:11;102791.13;;;7.13;28.28
41254;BME280;26987;59.928;30.306;2023-04-15T12:21:43;102781.97;;;7.06;28.43
41254;BME280;26987;59.928;30.306;2023-04-15T12:24:12;102772.50;;;7.02;28.01
41254;BME280;26987;59.928;30.306;2023-04-15T12:26:44;102772.25;;;7.05;28.26
41254;BME280;26987;59.928;30.306;2023-04-15T12:29:13;102758.78;;;7.06;28.00
41254;BME280;26987;59.928;30.306;2023-04-15T12:31:50;102778.16;;;7.40;27.89
41254;BME280;26987;59.928;30.306;2023-04-15T12:34:25;102765.94;;;7.37;27.79
41254;BME280;26987;59.928;30.306;2023-04-15T12:36:55;102747.22;;;7.27;27.63
41254;BME280;26987;59.928;30.306;2023-04-15T12:39:24;102761.88;;;7.43;27.91
41254;BME280;26987;59.928;30.306;2023-04-15T12:41:53;102763.19;;;7.68;26.85
41254;BME280;26987;59.928;30.306;2023-04-15T12:44:22;102763.50;;;7.85;25.09
41254;BME280;26987;59.928;30.306;2023-04-15T12:46:52;102763.53;;;7.95;25.61
41254;BME280;26987;59.928;30.306;2023-04-15T12:49:20;102766.06;;;8.06;25.55
41254;BME280;26987;59.928;30.306;2023-04-15T12:51:48;102763.78;;;8.22;25.15
41254;BME280;26987;59.928;30.306;2023-04-15T12:54:17;102771.38;;;8.36;25.28
41254;BME280;26987;59.928;30.306;2023-04-15T12:56:45;102732.28;;;8.15;24.76
41254;BME280;26987;59.928;30.306;2023-04-15T12:59:14;102776.31;;;8.11;24.92
41254;BME280;26987;59.928;30.306;2023-04-15T13:01:43;102766.88;;;7.87;25.22
41254;BME280;26987;59.928;30.306;2023-04-15T13:04:13;102762.91;;;7.72;25.68
41254;BME280;26987;59.928;30.306;2023-04-15T13:06:41;102758.97;;;7.66;25.71
41254;BME280;26987;59.928;30.306;2023-04-15T13:09:10;102755.44;;;7.65;25.68